Time;durP1;ratioP1;P1;durP2;ratioP2;P2;SDS_P1;SDS_P2;PMS_P1;PMS_P2;Temp;Humidity;BMP_temperature;BMP_pressure;BME280_temperature;BME280_humidity;BME280_pressure;Samples;Min_cycle;Max_cycle;Signal;HPM_P1;HPM_P2
2023/02/21 02:15:23;;;;;;;5.65;4.57;;;6.20;82.20;;;;;;5049793;28;20035;-58
2023/02/21 02:18:12;;;;;;;4.75;4.20;;;6.30;82.40;;;;;;5046245;28;20056;-60
2023/02/21 02:20:56;;;;;;;5.65;4.55;;;6.30;82.40;;;;;;5049601;28;20037;-60
2023/02/21 02:23:25;;;;;;;4.82;4.35;;;6.40;82.30;;;;;;5051337;28;20029;-59
2023/02/21 02:26:09;;;;;;;4.72;4.03;;;6.40;82.50;;;;;;5048208;28;20037;-61
2023/02/21 02:29:04;;;;;;;6.07;4.60;;;6.50;82.20;;;;;;5048447;28;20029;-62
2023/02/21 02:31:42;;;;;;;5.03;4.35;;;6.60;82.30;;;;;;5041666;28;20037;-58
2023/02/21 02:34:19;;;;;;;4.97;4.00;;;6.70;82.20;;;;;;5048769;28;20140;-60
2023/02/21 02:37:13;;;;;;;4.80;4.15;;;6.70;82.00;;;;;;5051135;28;20036;-60
2023/02/21 02:39:48;;;;;;;4.78;3.85;;;6.80;81.90;;;;;;5050202;28;20082;-64
2023/02/21 02:42:37;;;;;;;4.75;3.97;;;6.80;81.90;;;;;;5051003;28;20029;-64
2023/02/21 02:45:35;;;;;;;4.85;4.20;;;6.80;82.20;;;;;;5046467;28;20390;-64
2023/02/21 02:48:20;;;;;;;5.10;4.10;;;6.70;81.80;;;;;;5038930;28;20065;-63
2023/02/21 02:50:49;;;;;;;4.55;4.10;;;6.70;82.00;;;;;;5044642;28;20359;-60
2023/02/21 02:53:18;;;;;;;6.00;4.30;;;6.80;82.00;;;;;;5046869;28;20041;-60
2023/02/21 02:56:02;;;;;;;6.78;4.30;;;6.80;82.00;;;;;;5050603;28;20098;-62
2023/02/21 02:58:39;;;;;;;4.00;3.60;;;6.70;81.80;;;;;;5049845;28;20025;-61
2023/02/21 03:01:29;;;;;;;4.28;3.80;;;6.70;81.80;;;;;;5050102;28;20187;-63
2023/02/21 03:04:22;;;;;;;5.93;4.38;;;6.70;81.60;;;;;;5051812;28;20056;-64
2023/02/21 03:07:06;;;;;;;5.70;4.45;;;6.60;82.00;;;;;;5049358;28;20029;-60
2023/02/21 03:10:10;;;;;;;5.35;4.18;;;6.60;82.00;;;;;;5047265;28;20111;-60
2023/02/21 03:12:54;;;;;;;5.00;3.80;;;6.50;82.50;;;;;;5046842;28;20609;-61
2023/02/21 03:15:27;;;;;;;4.85;4.18;;;6.50;82.80;;;;;;5050849;28;20041;-52
2023/02/21 03:17:59;;;;;;;6.43;4.47;;;6.40;83.10;;;;;;5040058;28;20095;-55
2023/02/21 03:20:27;;;;;;;7.47;4.50;;;6.40;83.80;;;;;;5050947;28;20053;-53
2023/02/21 03:22:55;;;;;;;6.15;4.30;;;6.30;84.10;;;;;;5049105;28;20041;-53
2023/02/21 03:25:22;;;;;;;7.05;4.43;;;6.30;84.70;;;;;;5050424;28;20040;-60
2023/02/21 03:27:50;;;;;;;4.88;3.85;;;6.30;84.80;;;;;;5049030;28;20037;-60
2023/02/21 03:30:17;;;;;;;5.00;3.78;;;6.30;85.10;;;;;;5047002;28;20093;-62
2023/02/21 03:32:47;;;;;;;4.90;3.70;;;6.30;85.10;;;;;;5050249;28;20468;-62
2023/02/21 03:35:14;;;;;;;7.57;3.83;;;6.30;85.20;;;;;;5045448;28;20080;-48
2023/02/21 03:37:45;;;;;;;5.05;3.63;;;6.30;85.00;;;;;;5050671;28;20437;-49
2023/02/21 03:40:22;;;;;;;4.95;3.22;;;6.30;84.80;;;;;;5052873;28;20029;-53
2023/02/21 03:42:48;;;;;;;4.75;3.38;;;6.30;84.50;;;;;;5052145;28;20063;-52
2023/02/21 03:45:14;;;;;;;7.65;3.35;;;6.30;84.30;;;;;;5050120;28;20087;-51
2023/02/21 03:47:40;;;;;;;4.82;3.20;;;6.30;84.10;;;;;;5052574;28;20052;-49
2023/02/21 03:50:06;;;;;;;4.18;3.10;;;6.30;83.90;;;;;;5052047;28;20095;-49
2023/02/21 03:52:32;;;;;;;4.32;3.05;;;6.30;83.80;;;;;;5053665;28;20366;-51
2023/02/21 03:54:57;;;;;;;3.92;3.10;;;6.30;83.80;;;;;;5050183;28;20053;-48
2023/02/21 03:57:23;;;;;;;3.38;2.63;;;6.30;83.60;;;;;;5052518;28;20025;-53
2023/02/21 03:59:49;;;;;;;3.03;2.72;;;6.30;83.40;;;;;;5050906;28;20033;-49
2023/02/21 04:02:15;;;;;;;3.28;2.90;;;6.30;83.20;;;;;;5053167;28;20116;-62
2023/02/21 04:04:40;;;;;;;4.35;2.95;;;6.30;83.00;;;;;;5050654;28;20502;-61
2023/02/21 04:07:06;;;;;;;5.10;2.80;;;6.30;82.80;;;;;;5050815;28;20123;-62
2023/02/21 04:09:32;;;;;;;3.10;2.50;;;6.30;82.70;;;;;;5052788;28;20075;-61
2023/02/21 04:11:58;;;;;;;6.07;3.03;;;6.30;82.80;;;;;;5052087;28;20416;-61
2023/02/21 04:14:23;;;;;;;5.10;2.92;;;6.20;82.80;;;;;;5049824;28;20444;-61
2023/02/21 04:16:49;;;;;;;4.97;3.05;;;6.30;82.80;;;;;;5048061;28;20652;-50
2023/02/21 04:19:14;;;;;;;3.67;2.78;;;6.20;83.20;;;;;;5053103;28;20057;-49
2023/02/21 04:21:40;;;;;;;3.22;2.55;;;6.30;83.20;;;;;;5051232;28;20429;-48
2023/02/21 04:24:06;;;;;;;4.35;2.80;;;6.30;83.20;;;;;;5050028;28;20542;-54
2023/02/21 04:26:33;;;;;;;5.57;2.78;;;6.30;83.20;;;;;;5054078;28;20479;-60
2023/02/21 04:28:59;;;;;;;4.68;2.97;;;6.30;83.30;;;;;;5050582;28;20029;-60
2023/02/21 04:31:25;;;;;;;4.10;2.60;;;6.30;83.10;;;;;;5052351;28;20040;-59
2023/02/21 04:33:51;;;;;;;3.78;2.72;;;6.30;83.10;;;;;;5052591;28;20037;-59
2023/02/21 04:36:17;;;;;;;3.25;2.90;;;6.40;83.10;;;;;;5053235;28;20036;-61
2023/02/21 04:38:42;;;;;;;3.13;2.55;;;6.40;82.90;;;;;;5051651;28;20033;-63
2023/02/21 04:41:08;;;;;;;5.50;3.17;;;6.40;82.80;;;;;;5053005;28;20029;-59
2023/02/21 04:43:34;;;;;;;2.80;2.50;;;6.40;82.70;;;;;;5052434;28;20112;-60
2023/02/21 04:45:59;;;;;;;2.63;2.42;;;6.50;82.60;;;;;;5051940;28;20033;-50
2023/02/21 04:48:25;;;;;;;3.47;2.88;;;6.40;82.50;;;;;;5052238;28;20029;-55
2023/02/21 04:50:51;;;;;;;4.70;2.92;;;6.40;82.40;;;;;;5051724;28;20033;-52
2023/02/21 04:53:16;;;;;;;3.95;2.80;;;6.40;82.40;;;;;;5052988;28;20040;-54
2023/02/21 04:55:42;;;;;;;4.82;3.10;;;6.40;82.40;;;;;;5053025;28;20036;-60
2023/02/21 04:58:08;;;;;;;3.75;2.70;;;6.50;82.40;;;;;;5048937;28;20032;-60
2023/02/21 05:00:34;;;;;;;3.00;2.67;;;6.50;82.20;;;;;;5049642;28;20025;-60
2023/02/21 05:02:59;;;;;;;5.47;3.58;;;6.60;82.20;;;;;;5049290;28;20458;-62
2023/02/21 05:05:25;;;;;;;3.75;3.00;;;6.50;82.30;;;;;;5049297;28;20029;-60
2023/02/21 05:07:51;;;;;;;4.53;3.28;;;6.50;82.20;;;;;;5049588;28;20029;-59
2023/02/21 05:10:17;;;;;;;6.72;3.45;;;6.50;82.30;;;;;;5051162;28;20133;-59
2023/02/21 05:12:44;;;;;;;6.88;3.50;;;6.40;82.50;;;;;;5047837;28;20029;-58
2023/02/21 05:15:11;;;;;;;4.43;3.20;;;6.40;82.50;;;;;;5051250;28;20041;-58
2023/02/21 05:17:37;;;;;;;5.20;3.08;;;6.40;82.50;;;;;;5050144;28;21880;-59
2023/02/21 05:20:04;;;;;;;4.35;3.22;;;6.40;82.70;;;;;;5050386;28;20064;-60
2023/02/21 05:22:29;;;;;;;5.30;3.60;;;6.40;82.70;;;;;;5037796;28;20046;-60
2023/02/21 05:24:55;;;;;;;6.38;3.78;;;6.30;82.80;;;;;;5050510;28;20043;-59
2023/02/21 05:27:21;;;;;;;4.57;3.22;;;6.30;82.80;;;;;;5048986;28;20410;-59
2023/02/21 05:29:49;;;;;;;5.88;3.10;;;6.40;82.90;;;;;;5042027;28;20031;-59
2023/02/21 05:32:15;;;;;;;5.38;3.30;;;6.40;82.80;;;;;;5047964;28;20453;-59
2023/02/21 05:34:43;;;;;;;4.90;3.13;;;6.40;82.50;;;;;;5045791;28;20127;-60
2023/02/21 05:37:10;;;;;;;7.20;3.50;;;6.40;82.50;;;;;;5048786;28;20444;-52
2023/02/21 05:39:36;;;;;;;3.90;3.25;;;6.50;82.40;;;;;;5050228;28;20029;-53
2023/02/21 05:42:01;;;;;;;4.60;3.30;;;6.50;82.30;;;;;;5049888;28;20087;-63
2023/02/21 05:44:27;;;;;;;5.57;3.15;;;6.60;82.30;;;;;;5047949;28;20080;-60
2023/02/21 05:46:53;;;;;;;3.80;2.90;;;6.60;82.20;;;;;;5044487;28;20056;-62
2023/02/21 05:49:18;;;;;;;3.88;3.05;;;6.70;82.20;;;;;;5049930;28;20032;-64
2023/02/21 05:51:44;;;;;;;4.88;3.08;;;6.70;82.10;;;;;;5050747;28;20526;-61
2023/02/21 05:54:17;;;;;;;4.40;2.90;;;6.80;82.00;;;;;;5047375;28;20029;-61
2023/02/21 05:56:44;;;;;;;3.45;2.80;;;6.90;81.90;;;;;;5048341;28;20452;-61
2023/02/21 05:59:11;;;;;;;3.17;2.65;;;6.90;81.60;;;;;;5046710;28;20028;-60
2023/02/21 06:01:36;;;;;;;3.08;2.53;;;7.00;81.50;;;;;;5047032;28;20065;-61
2023/02/21 06:04:04;;;;;;;2.95;2.45;;;7.10;81.40;;;;;;5048522;28;20486;-60
2023/02/21 06:06:29;;;;;;;4.70;2.80;;;7.20;81.30;;;;;;5050847;28;20060;-61
2023/02/21 06:08:55;;;;;;;7.00;2.97;;;7.20;81.10;;;;;;5042704;28;20064;-62
2023/02/21 06:11:24;;;;;;;3.25;2.63;;;7.30;80.90;;;;;;5039173;28;20103;-60
2023/02/21 06:13:51;;;;;;;2.83;2.53;;;7.30;80.70;;;;;;5043436;28;20493;-61
2023/02/21 06:16:17;;;;;;;4.15;3.17;;;7.40;80.80;;;;;;5050942;28;20052;-62
2023/02/21 06:18:42;;;;;;;2.95;2.60;;;7.50;80.90;;;;;;5046980;28;20049;-61
2023/02/21 06:21:08;;;;;;;4.35;2.67;;;7.50;80.80;;;;;;5050843;28;20090;-60
2023/02/21 06:23:34;;;;;;;3.95;2.67;;;7.60;80.70;;;;;;5051095;28;20099;-61
2023/02/21 06:25:59;;;;;;;2.92;2.60;;;7.70;80.60;;;;;;5046879;28;20116;-62
2023/02/21 06:28:29;;;;;;;3.03;2.42;;;7.70;80.20;;;;;;5048422;28;20064;-63
2023/02/21 06:30:55;;;;;;;4.32;2.50;;;7.90;79.90;;;;;;5047022;28;20053;-61
2023/02/21 06:33:21;;;;;;;4.20;2.80;;;7.90;79.30;;;;;;5045072;28;20070;-61
2023/02/21 06:35:47;;;;;;;5.60;2.50;;;7.90;79.00;;;;;;5045531;28;20037;-61
2023/02/21 06:38:12;;;;;;;2.97;2.35;;;8.00;78.70;;;;;;5048195;28;20029;-62
2023/02/21 06:40:38;;;;;;;4.72;2.70;;;8.00;78.30;;;;;;5039430;28;20037;-61
2023/02/21 06:43:04;;;;;;;4.70;2.70;;;8.00;78.20;;;;;;5040292;28;20056;-61
2023/02/21 06:45:29;;;;;;;3.97;2.70;;;8.00;77.90;;;;;;5049577;28;20029;-62
2023/02/21 06:47:55;;;;;;;4.10;2.50;;;8.00;77.70;;;;;;5033754;28;20025;-63
2023/02/21 06:50:20;;;;;;;3.38;2.40;;;8.00;77.20;;;;;;5037385;28;20029;-60
2023/02/21 06:52:46;;;;;;;3.25;2.50;;;8.10;77.30;;;;;;5036802;28;20060;-62
2023/02/21 06:55:12;;;;;;;3.50;2.50;;;8.00;77.20;;;;;;5033672;28;20064;-61
2023/02/21 06:57:37;;;;;;;3.45;2.28;;;8.10;77.20;;;;;;5033994;28;20037;-61
2023/02/21 07:00:04;;;;;;;3.28;2.60;;;8.10;76.80;;;;;;5041576;28;20033;-62
2023/02/21 07:02:30;;;;;;;3.17;2.33;;;8.10;76.90;;;;;;5037686;28;20037;-62
2023/02/21 07:04:56;;;;;;;2.40;2.20;;;8.10;76.70;;;;;;5037978;28;20033;-62
2023/02/21 07:07:22;;;;;;;2.47;2.25;;;8.10;76.50;;;;;;5042854;28;22477;-63
2023/02/21 07:09:47;;;;;;;3.13;2.30;;;8.10;76.50;;;;;;5042162;28;20033;-59
2023/02/21 07:12:13;;;;;;;3.22;2.00;;;8.10;76.00;;;;;;5034163;28;20044;-61
2023/02/21 07:14:39;;;;;;;3.05;2.05;;;8.10;75.90;;;;;;5038429;28;20040;-63
2023/02/21 07:17:04;;;;;;;3.03;2.30;;;8.10;75.60;;;;;;5047150;28;20057;-62
2023/02/21 07:19:30;;;;;;;4.00;2.20;;;8.10;75.40;;;;;;5034010;28;20049;-62
2023/02/21 07:21:56;;;;;;;3.78;2.33;;;8.10;75.20;;;;;;5031695;28;20554;-59
2023/02/21 07:24:21;;;;;;;3.38;2.38;;;8.20;75.30;;;;;;5033372;28;20566;-61
2023/02/21 07:26:47;;;;;;;2.53;2.10;;;8.10;74.70;;;;;;5032905;28;20036;-62
2023/02/21 07:29:13;;;;;;;4.65;2.67;;;8.20;74.90;;;;;;5035552;28;20569;-60
2023/02/21 07:31:39;;;;;;;3.65;2.28;;;8.20;74.60;;;;;;5036041;28;20119;-61
2023/02/21 07:34:04;;;;;;;2.53;2.30;;;8.20;74.50;;;;;;5030065;28;20029;-61
2023/02/21 07:36:30;;;;;;;5.45;2.40;;;8.20;74.40;;;;;;5032174;28;20033;-64
2023/02/21 07:38:56;;;;;;;5.28;2.47;;;8.20;74.10;;;;;;5035703;28;20036;-60
2023/02/21 07:41:22;;;;;;;4.10;2.35;;;8.20;74.10;;;;;;5035472;28;20036;-62
2023/02/21 07:43:47;;;;;;;2.92;2.17;;;8.10;73.80;;;;;;5028342;28;20035;-61
2023/02/21 07:46:14;;;;;;;2.85;2.15;;;8.20;74.10;;;;;;5033192;28;20041;-61
2023/02/21 07:48:40;;;;;;;5.25;2.60;;;8.20;74.20;;;;;;5037958;28;20085;-61
2023/02/21 07:51:07;;;;;;;3.38;2.13;;;8.20;74.10;;;;;;5031266;28;20033;-63
2023/02/21 07:53:33;;;;;;;3.20;2.50;;;8.20;73.70;;;;;;5030435;28;20119;-62
2023/02/21 07:55:59;;;;;;;3.40;2.03;;;8.20;73.60;;;;;;5035650;28;20481;-59
2023/02/21 07:58:25;;;;;;;3.88;2.05;;;8.20;73.70;;;;;;5040118;28;20379;-61
2023/02/21 08:00:51;;;;;;;4.07;2.13;;;8.30;73.40;;;;;;5026478;28;20064;-62
2023/02/21 08:03:17;;;;;;;4.57;2.70;;;8.30;73.20;;;;;;5028999;28;20116;-62
2023/02/21 08:05:44;;;;;;;3.65;2.28;;;8.30;72.90;;;;;;5019695;28;20044;-61
2023/02/21 08:08:11;;;;;;;3.22;2.20;;;8.30;72.90;;;;;;5017414;28;20032;-60
2023/02/21 08:10:36;;;;;;;3.08;2.25;;;8.40;72.90;;;;;;5022979;28;20029;-61
2023/02/21 08:13:03;;;;;;;2.40;2.20;;;8.40;72.80;;;;;;5023933;28;20033;-59
2023/02/21 08:15:28;;;;;;;5.13;2.25;;;8.40;72.60;;;;;;5017593;28;20068;-61
2023/02/21 08:17:54;;;;;;;2.75;2.30;;;8.40;72.70;;;;;;5025737;28;20759;-61
2023/02/21 08:20:20;;;;;;;3.25;2.38;;;8.50;72.50;;;;;;5015915;28;20415;-61
2023/02/21 08:22:45;;;;;;;4.97;2.67;;;8.50;72.20;;;;;;5018098;28;20037;-61
2023/02/21 08:25:13;;;;;;;2.45;2.20;;;8.50;72.30;;;;;;5011043;28;20134;-61
2023/02/21 08:27:40;;;;;;;3.85;2.00;;;8.60;72.30;;;;;;5025122;28;20033;-60
2023/02/21 08:30:07;;;;;;;4.88;2.35;;;8.70;71.90;;;;;;5022299;28;20043;-61
2023/02/21 08:32:34;;;;;;;5.53;2.20;;;8.70;71.40;;;;;;5032068;28;20036;-61
2023/02/21 08:35:02;;;;;;;3.47;2.20;;;8.80;71.40;;;;;;5022791;28;20741;-61
2023/02/21 08:37:31;;;;;;;3.05;2.25;;;8.90;70.80;;;;;;5022517;28;20965;-61
2023/02/21 08:39:58;;;;;;;4.80;2.42;;;8.90;70.20;;;;;;5023813;28;20436;-61
2023/02/21 08:42:24;;;;;;;2.10;1.90;;;9.00;70.20;;;;;;5027997;28;20037;-60
2023/02/21 08:44:50;;;;;;;3.70;2.65;;;9.00;70.00;;;;;;5029143;28;20045;-60
2023/02/21 08:47:17;;;;;;;4.63;2.10;;;9.00;69.20;;;;;;5024510;28;21176;-62
2023/02/21 08:49:44;;;;;;;2.65;2.10;;;9.10;69.30;;;;;;5028670;28;20056;-62
2023/02/21 08:52:09;;;;;;;3.55;2.10;;;9.00;69.10;;;;;;5025381;28;20451;-60
2023/02/21 08:54:35;;;;;;;2.83;2.28;;;9.10;69.30;;;;;;5023784;28;20033;-62
2023/02/21 08:57:01;;;;;;;2.40;2.00;;;9.10;69.50;;;;;;5022384;28;20037;-62
2023/02/21 08:59:29;;;;;;;3.30;2.28;;;9.10;69.50;;;;;;5026540;28;20057;-61
2023/02/21 09:01:55;;;;;;;3.17;2.20;;;9.10;69.10;;;;;;5007502;28;20039;-62
2023/02/21 09:04:20;;;;;;;4.72;2.50;;;9.10;68.90;;;;;;5020753;28;20111;-63
2023/02/21 09:06:46;;;;;;;3.05;2.42;;;9.10;68.90;;;;;;5023400;28;20029;-62
2023/02/21 09:09:11;;;;;;;4.13;2.30;;;9.10;68.30;;;;;;5023187;28;20033;-61
2023/02/21 09:11:37;;;;;;;4.78;2.65;;;9.10;68.00;;;;;;5022261;28;20033;-63
2023/02/21 09:14:04;;;;;;;3.75;2.58;;;9.20;67.90;;;;;;5019501;28;20033;-62
2023/02/21 09:16:31;;;;;;;4.53;2.58;;;9.10;67.30;;;;;;5014486;28;20028;-62
2023/02/21 09:19:00;;;;;;;5.30;2.60;;;9.10;66.90;;;;;;4997090;28;20660;-61
2023/02/21 09:21:26;;;;;;;3.70;2.30;;;9.10;66.70;;;;;;4994731;28;20039;-62
2023/02/21 09:23:54;;;;;;;4.22;2.40;;;9.00;66.40;;;;;;5013867;28;20033;-62
2023/02/21 09:26:22;;;;;;;4.90;2.65;;;9.10;66.80;;;;;;5010724;28;20042;-62
2023/02/21 09:28:49;;;;;;;3.67;2.55;;;9.10;66.50;;;;;;4997727;28;20437;-62
2023/02/21 09:31:15;;;;;;;4.88;2.92;;;9.20;66.10;;;;;;5001030;28;20033;-61
2023/02/21 09:33:41;;;;;;;4.13;2.42;;;9.20;65.90;;;;;;5003554;28;20190;-61
2023/02/21 09:36:10;;;;;;;5.05;2.42;;;9.30;66.30;;;;;;5007275;28;21623;-62
2023/02/21 09:38:35;;;;;;;3.58;2.30;;;9.30;65.80;;;;;;5004810;28;20044;-61
2023/02/21 09:41:05;;;;;;;3.67;2.10;;;9.40;65.80;;;;;;5012555;28;20029;-61
2023/02/21 09:43:44;;;;;;;4.20;2.20;;;9.40;65.80;;;;;;5007258;28;20038;-61
2023/02/21 09:46:16;;;;;;;3.75;2.28;;;9.40;64.70;;;;;;5006777;28;20107;-61
2023/02/21 09:48:43;;;;;;;3.15;2.40;;;9.50;64.80;;;;;;4998499;28;20041;-61
2023/02/21 09:51:11;;;;;;;4.85;2.80;;;9.50;64.90;;;;;;5003906;28;20037;-61
2023/02/21 09:53:43;;;;;;;3.80;2.55;;;9.50;64.80;;;;;;5001716;28;20041;-61
2023/02/21 09:56:16;;;;;;;;;;;9.60;64.80;;;;;;4995482;28;20042;-61
2023/02/21 09:58:43;;;;;;;4.95;2.75;;;9.60;64.00;;;;;;5010163;28;20011;-60
2023/02/21 10:01:28;;;;;;;3.22;2.35;;;9.60;64.30;;;;;;4986530;28;20076;-62
2023/02/21 10:04:17;;;;;;;3.75;2.30;;;9.70;64.30;;;;;;5005369;28;20044;-60
2023/02/21 10:06:45;;;;;;;3.33;2.13;;;9.70;63.80;;;;;;5002917;28;20037;-61
2023/02/21 10:09:43;;;;;;;4.82;2.33;;;9.70;63.90;;;;;;5007033;28;20030;-61
2023/02/21 10:12:26;;;;;;;2.65;2.13;;;9.70;64.30;;;;;;5007154;28;20929;-60
2023/02/21 10:15:28;;;;;;;2.08;1.95;;;9.70;64.70;;;;;;5001620;28;20041;-62
2023/02/21 10:18:13;;;;;;;4.90;2.33;;;9.70;64.80;;;;;;4983759;28;20126;-62
2023/02/21 10:20:44;;;;;;;4.50;2.28;;;9.70;64.80;;;;;;5012100;28;20103;-62
2023/02/21 10:23:27;;;;;;;4.43;2.45;;;9.70;64.50;;;;;;4995160;28;20104;-62
2023/02/21 10:25:58;;;;;;;4.25;2.25;;;9.80;64.50;;;;;;4999889;28;20678;-62
2023/02/21 10:28:25;;;;;;;4.53;2.30;;;9.70;64.80;;;;;;4996957;28;20029;-62
2023/02/21 10:30:56;;;;;;;2.03;1.90;;;9.60;64.80;;;;;;5003356;28;20498;-62
2023/02/21 10:33:21;;;;;;;2.00;1.85;;;9.60;64.80;;;;;;5013722;28;20056;-61
2023/02/21 10:35:47;;;;;;;3.33;1.77;;;9.50;65.00;;;;;;5007983;28;20554;-63
2023/02/21 10:38:17;;;;;;;3.65;2.08;;;9.50;65.30;;;;;;5004415;28;20036;-61
2023/02/21 10:40:57;;;;;;;3.42;1.98;;;9.50;65.50;;;;;;5008192;28;20668;-61
2023/02/21 10:43:43;;;;;;;2.58;1.80;;;9.50;65.50;;;;;;5015742;28;20384;-60
2023/02/21 10:46:16;;;;;;;2.67;1.98;;;9.40;65.40;;;;;;5011304;28;20504;-62
2023/02/21 10:48:45;;;;;;;3.95;2.20;;;9.40;65.40;;;;;;5013899;28;20034;-61
2023/02/21 10:51:17;;;;;;;4.25;2.50;;;9.50;65.30;;;;;;5013936;28;20030;-61
2023/02/21 10:53:44;;;;;;;;;;;9.50;65.40;;;;;;5013427;28;20029;-60
2023/02/21 10:56:18;;;;;;;2.95;2.00;;;9.40;65.40;;;;;;5002555;28;19999;-62
2023/02/21 10:59:05;;;;;;;3.47;2.20;;;9.50;66.20;;;;;;5010185;28;20044;-62
2023/02/21 11:01:44;;;;;;;3.83;2.50;;;9.50;67.00;;;;;;5017721;28;20123;-63
2023/02/21 11:04:33;;;;;;;3.10;2.15;;;9.50;67.30;;;;;;5019217;28;20683;-60
2023/02/21 11:07:10;;;;;;;2.85;2.13;;;9.50;67.60;;;;;;5030532;28;20116;-60
2023/02/21 11:09:44;;;;;;;3.60;2.30;;;9.50;67.80;;;;;;5021865;28;20034;-60
2023/02/21 11:12:17;;;;;;;3.35;2.35;;;9.50;68.10;;;;;;5016267;28;20132;-61
2023/02/21 11:15:14;;;;;;;2.75;2.10;;;9.60;68.40;;;;;;5015345;28;20551;-60
2023/02/21 11:17:42;;;;;;;3.17;2.30;;;9.70;68.50;;;;;;5013985;28;20091;-62
2023/02/21 11:20:13;;;;;;;4.07;2.20;;;9.80;68.60;;;;;;5037682;28;20084;-62
2023/02/21 11:22:41;;;;;;;2.35;2.10;;;9.90;67.90;;;;;;5028451;28;20041;-61
2023/02/21 11:25:22;;;;;;;3.60;2.28;;;9.90;67.40;;;;;;5036178;28;20067;-60
2023/02/21 11:28:08;;;;;;;2.60;1.90;;;10.00;67.30;;;;;;5032731;28;20037;-61
2023/02/21 11:30:42;;;;;;;2.47;2.00;;;10.00;67.40;;;;;;5032523;28;20571;-62
2023/02/21 11:33:09;;;;;;;4.03;2.45;;;10.00;65.90;;;;;;5031902;28;20118;-61
2023/02/21 11:35:43;;;;;;;2.60;1.90;;;9.90;65.40;;;;;;5030874;28;20051;-61
2023/02/21 11:38:34;;;;;;;2.10;1.90;;;9.90;65.70;;;;;;5038432;28;20032;-60
2023/02/21 11:41:01;;;;;;;3.50;2.40;;;9.90;65.50;;;;;;5032240;28;20518;-62
2023/02/21 11:43:29;;;;;;;3.10;2.33;;;9.90;65.50;;;;;;5035738;28;20558;-61
2023/02/21 11:46:09;;;;;;;3.95;2.10;;;9.90;65.50;;;;;;5038451;28;20085;-61
2023/02/21 11:48:50;;;;;;;4.70;2.55;;;9.90;65.80;;;;;;5022920;28;20024;-61
2023/02/21 11:51:32;;;;;;;3.88;2.28;;;9.90;66.60;;;;;;5034630;28;20044;-60
2023/02/21 11:53:58;;;;;;;2.97;1.98;;;10.00;65.70;;;;;;5037914;28;20056;-61
2023/02/21 11:56:42;;;;;;;2.67;2.10;;;10.00;65.30;;;;;;5037938;28;20032;-64
2023/02/21 11:59:35;;;;;;;2.33;1.70;;;9.90;65.20;;;;;;5034957;28;20822;-62
2023/02/21 12:02:41;;;;;;;2.10;1.83;;;9.80;66.70;;;;;;5024579;28;20063;-60
2023/02/21 12:05:12;;;;;;;2.15;1.70;;;9.60;68.00;;;;;;5035747;28;20041;-61
2023/02/21 12:08:18;;;;;;;2.30;1.77;;;9.40;68.60;;;;;;5039480;28;20467;-61
2023/02/21 12:10:50;;;;;;;1.73;1.63;;;9.20;69.80;;;;;;4997617;28;20119;-61
2023/02/21 12:13:37;;;;;;;2.40;1.90;;;9.10;69.80;;;;;;5037165;28;20040;-61
2023/02/21 12:16:41;;;;;;;3.03;2.10;;;9.00;70.50;;;;;;5029503;28;20140;-61
2023/02/21 12:19:22;;;;;;;2.88;1.73;;;8.90;71.20;;;;;;5037981;28;20111;-63
2023/02/21 12:22:07;;;;;;;2.93;2.10;;;8.90;71.40;;;;;;5034269;28;20037;-61
2023/02/21 12:24:54;;;;;;;3.25;2.33;;;9.00;71.60;;;;;;5034872;28;20059;-63
2023/02/21 12:27:20;;;;;;;2.38;1.92;;;9.10;72.00;;;;;;5014633;28;20483;-62
2023/02/21 12:29:51;;;;;;;3.17;2.08;;;9.10;71.60;;;;;;5037153;28;20090;-61
2023/02/21 12:32:26;;;;;;;;;;;9.20;71.60;;;;;;5031506;28;20036;-62
2023/02/21 12:35:10;;;;;;;2.47;2.25;;;9.30;71.60;;;;;;5034112;28;19917;-62
2023/02/21 12:37:40;;;;;;;6.03;2.03;;;9.30;70.90;;;;;;5033618;28;20041;-60
2023/02/21 12:40:44;;;;;;;3.05;1.70;;;9.30;69.80;;;;;;5033618;28;20108;-62
2023/02/21 12:43:36;;;;;;;0.93;0.93;;;9.30;70.10;;;;;;4964493;28;21396;-62
2023/02/21 12:46:12;;;;;;;1.05;1.02;;;8.80;70.20;;;;;;5012620;28;20044;-61
2023/02/21 12:48:48;;;;;;;1.00;1.00;;;8.40;71.00;;;;;;5032304;28;20098;-63
2023/02/21 12:51:18;;;;;;;1.60;1.10;;;7.90;71.90;;;;;;5031022;28;20091;-60
2023/02/21 12:53:56;;;;;;;1.05;1.05;;;7.60;73.10;;;;;;5031345;28;20494;-62
2023/02/21 12:56:37;;;;;;;2.40;1.40;;;7.30;74.10;;;;;;5027268;28;20044;-63
2023/02/21 12:59:29;;;;;;;1.20;1.20;;;7.10;74.90;;;;;;5029682;28;20017;-61
2023/02/21 13:02:03;;;;;;;1.00;1.00;;;6.90;76.60;;;;;;5031516;28;20138;-61
2023/02/21 13:04:51;;;;;;;1.77;1.67;;;6.70;77.10;;;;;;5033238;28;20764;-61
2023/02/21 13:07:37;;;;;;;2.97;1.65;;;6.60;78.40;;;;;;5029004;28;20057;-60
2023/02/21 13:10:06;;;;;;;2.58;1.95;;;6.60;79.00;;;;;;5027336;28;20025;-61
2023/02/21 13:13:00;;;;;;;2.50;1.92;;;6.50;79.30;;;;;;5029178;28;20079;-62
2023/02/21 13:15:28;;;;;;;2.50;1.70;;;6.60;79.90;;;;;;5035121;28;20049;-64
2023/02/21 13:18:05;;;;;;;1.63;1.52;;;6.60;79.60;;;;;;5031812;28;20037;-61
2023/02/21 13:20:42;;;;;;;1.75;1.65;;;6.60;79.60;;;;;;5035502;28;20052;-60
2023/02/21 13:26:54;;;;;;;3.83;1.92;;;6.70;79.80;;;;;;5030322;28;20043;-60
2023/02/21 13:29:30;;;;;;;2.03;1.90;;;6.80;79.90;;;;;;5019270;28;20033;-62
2023/02/21 13:31:59;;;;;;;2.70;2.10;;;6.80;79.90;;;;;;5026725;28;20482;-62
2023/02/21 13:34:28;;;;;;;2.40;2.10;;;6.80;79.70;;;;;;5030718;28;20023;-61
2023/02/21 13:37:04;;;;;;;2.10;1.98;;;6.80;79.90;;;;;;5038294;28;20037;-60
2023/02/21 13:39:35;;;;;;;3.80;1.90;;;6.90;80.20;;;;;;5030820;28;20036;-60
2023/02/21 13:42:16;;;;;;;2.17;2.03;;;6.90;80.00;;;;;;5012218;28;20029;-64
2023/02/21 13:44:45;;;;;;;2.17;1.95;;;6.90;80.10;;;;;;5035214;28;20032;-61
2023/02/21 13:47:17;;;;;;;1.80;1.70;;;6.90;80.10;;;;;;5037203;28;20060;-61
2023/02/21 13:49:53;;;;;;;2.03;1.80;;;7.00;80.00;;;;;;5033841;28;20041;-62
2023/02/21 13:52:18;;;;;;;1.70;1.60;;;7.00;80.00;;;;;;5034711;28;20029;-62
2023/02/21 13:57:43;;;;;;;3.92;1.90;;;6.90;80.10;;;;;;5028448;28;20079;-63
2023/02/21 14:00:23;;;;;;;2.33;1.70;;;7.00;80.00;;;;;;5028585;28;20670;-62
2023/02/21 14:03:08;;;;;;;5.95;2.22;;;7.00;80.00;;;;;;5030036;28;20032;-63
2023/02/21 14:05:55;;;;;;;3.42;2.22;;;7.00;80.00;;;;;;5034116;28;20041;-62
2023/02/21 14:08:51;;;;;;;3.35;2.10;;;7.00;80.00;;;;;;5036329;28;20030;-62
2023/02/21 14:11:22;;;;;;;3.92;2.17;;;7.00;80.00;;;;;;5029089;28;20045;-61
2023/02/21 14:14:03;;;;;;;2.33;2.13;;;7.00;80.20;;;;;;5032264;28;20091;-61
2023/02/21 14:16:33;;;;;;;2.47;2.22;;;7.00;80.10;;;;;;5029538;28;20037;-62
2023/02/21 14:19:08;;;;;;;2.53;2.10;;;7.00;80.20;;;;;;5012517;28;20191;-62
2023/02/21 14:21:45;;;;;;;3.10;2.30;;;7.10;80.10;;;;;;5023790;28;20029;-61
2023/02/21 14:24:23;;;;;;;3.63;2.03;;;7.10;80.10;;;;;;5021172;28;20033;-62
2023/02/21 14:26:57;;;;;;;3.20;2.40;;;7.10;79.90;;;;;;5032872;28;20032;-62
2023/02/21 14:29:37;;;;;;;3.25;2.30;;;7.20;80.00;;;;;;5027109;28;20043;-62
2023/02/21 14:32:03;;;;;;;3.13;2.20;;;7.10;79.90;;;;;;5030769;28;20029;-62
2023/02/21 14:34:47;;;;;;;3.03;2.10;;;7.20;79.90;;;;;;5033092;28;20033;-62
2023/02/21 14:37:31;;;;;;;2.95;2.10;;;7.20;80.00;;;;;;5035549;28;20064;-60
2023/02/21 14:40:04;;;;;;;3.28;2.08;;;7.20;79.90;;;;;;5031607;28;20033;-61
2023/02/21 14:42:30;;;;;;;2.58;2.00;;;7.20;79.90;;;;;;5027159;28;20101;-61
2023/02/21 14:45:13;;;;;;;3.28;2.20;;;7.30;79.80;;;;;;5025391;28;20049;-61
2023/02/21 14:47:59;;;;;;;2.20;2.00;;;7.30;79.70;;;;;;5032953;28;20121;-60
2023/02/21 14:50:44;;;;;;;2.25;2.00;;;7.40;80.00;;;;;;5021148;28;20034;-62
2023/02/21 14:53:21;;;;;;;2.00;1.83;;;7.40;79.10;;;;;;5022591;28;20035;-62
2023/02/21 14:56:08;;;;;;;2.17;1.98;;;7.50;79.00;;;;;;5020597;28;20238;-61
2023/02/21 14:58:53;;;;;;;3.20;2.17;;;7.50;78.80;;;;;;5031554;28;20633;-61
2023/02/21 15:01:39;;;;;;;3.78;1.90;;;7.50;78.50;;;;;;5027323;28;20037;-60
2023/02/21 15:04:31;;;;;;;1.98;1.80;;;7.50;78.40;;;;;;5024493;28;20064;-62
2023/02/21 15:07:10;;;;;;;2.85;2.00;;;7.50;78.60;;;;;;5021032;28;20041;-61
2023/02/21 15:09:36;;;;;;;2.80;2.25;;;7.50;78.60;;;;;;5025299;28;20033;-62
2023/02/21 15:12:09;;;;;;;1.85;1.75;;;7.40;78.30;;;;;;5025818;28;20644;-60
2023/02/21 15:14:49;;;;;;;4.20;2.17;;;7.40;78.40;;;;;;5018301;28;20029;-61
2023/02/21 15:17:23;;;;;;;2.30;2.10;;;7.40;78.20;;;;;;5020801;28;20399;-61
2023/02/21 15:20:21;;;;;;;3.50;2.22;;;7.40;78.10;;;;;;5027105;28;20089;-62
2023/02/21 15:22:55;;;;;;;2.72;2.00;;;7.40;78.20;;;;;;4988499;28;20658;-62
2023/02/21 15:25:21;;;;;;;3.05;2.10;;;7.40;78.10;;;;;;5026376;28;20049;-61
2023/02/21 15:27:47;;;;;;;2.50;2.00;;;7.30;78.10;;;;;;5033719;28;20025;-61
2023/02/21 15:30:16;;;;;;;4.10;2.30;;;7.30;78.20;;;;;;5024536;28;20033;-61
2023/02/21 15:32:43;;;;;;;2.45;2.20;;;7.30;78.30;;;;;;5027795;28;20037;-61
2023/02/21 15:35:20;;;;;;;3.00;2.33;;;7.30;78.10;;;;;;5029789;28;20045;-61
2023/02/21 15:37:46;;;;;;;1.83;1.73;;;7.30;78.00;;;;;;5026273;28;20041;-61
2023/02/21 15:40:19;;;;;;;2.80;2.10;;;7.20;78.00;;;;;;5030608;28;20021;-60
2023/02/21 15:42:47;;;;;;;2.00;1.83;;;7.20;78.10;;;;;;5030260;28;20057;-62
2023/02/21 15:45:34;;;;;;;3.78;2.15;;;7.20;78.20;;;;;;5028818;28;20072;-61